Time;durP1;ratioP1;P1;durP2;ratioP2;P2;SDS_P1;SDS_P2;PMS_P1;PMS_P2;Temp;Humidity;BMP_temperature;BMP_pressure;BME280_temperature;BME280_humidity;BME280_pressure;Samples;Min_cycle;Max_cycle;Signal;HPM_P1;HPM_P2
2021/12/07 00:01:42;;;;;;;;;;;4.50;40.80;;;;;;4985190;28;19922;-80
2021/12/07 00:04:09;;;;;;;;;;;4.40;40.80;;;;;;4992072;28;19929;-78
2021/12/07 00:06:37;;;;;;;;;;;4.40;40.40;;;;;;4998608;28;20473;-78
2021/12/07 00:09:05;;;;;;;;;;;4.50;39.90;;;;;;4992584;28;20323;-81
2021/12/07 00:11:32;;;;;;;;;;;4.50;40.20;;;;;;4987449;28;19926;-80
2021/12/07 00:13:59;;;;;;;;;;;4.60;41.00;;;;;;5006882;28;19972;-81
2021/12/07 00:16:27;;;;;;;;;;;4.60;43.10;;;;;;4991971;28;19922;-80
2021/12/07 00:18:54;;;;;;;;;;;4.60;43.60;;;;;;4997276;28;20024;-78
2021/12/07 00:21:21;;;;;;;;;;;4.60;41.20;;;;;;4996992;28;20010;-80
2021/12/07 00:23:49;;;;;;;;;;;4.60;41.20;;;;;;4980985;28;20371;-80
2021/12/07 00:26:35;;;;;;;;;;;4.60;41.60;;;;;;4994563;28;19965;-77
2021/12/07 00:29:03;;;;;;;;;;;4.50;41.30;;;;;;4986157;28;19929;-81
2021/12/07 00:31:37;;;;;;;;;;;4.60;41.30;;;;;;4988002;28;19955;-81
2021/12/07 00:36:38;;;;;;;;;;;4.60;41.20;;;;;;4997875;28;19926;-78
2021/12/07 00:39:06;;;;;;;;;;;4.60;43.00;;;;;;4994781;28;19929;-78
2021/12/07 00:41:34;;;;;;;;;;;4.00;47.80;;;;;;4989151;28;20370;-79
2021/12/07 00:44:02;;;;;;;;;;;4.00;48.70;;;;;;5013049;28;19921;-79
2021/12/07 00:46:29;;;;;;;;;;;3.90;49.20;;;;;;4991990;28;19930;-80
2021/12/07 00:48:57;;;;;;;;;;;3.70;49.50;;;;;;4980138;28;19922;-79
2021/12/07 00:51:25;;;;;;;;;;;3.70;50.60;;;;;;5010055;28;19929;-81
2021/12/07 00:53:53;;;;;;;;;;;3.40;50.20;;;;;;4996057;28;19921;-79
2021/12/07 00:56:21;;;;;;;;;;;3.10;51.20;;;;;;4994194;28;19921;-79
2021/12/07 00:58:49;;;;;;;;;;;3.00;52.10;;;;;;4991637;28;19922;-80
2021/12/07 01:01:16;;;;;;;;;;;2.80;52.70;;;;;;4993137;28;19921;-77
2021/12/07 01:03:44;;;;;;;;;;;2.70;52.60;;;;;;4993518;28;19926;-79
2021/12/07 01:25:27;;;;;;;;;;;2.40;55.80;;;;;;5002335;28;19945;-79
2021/12/07 01:27:57;;;;;;;;;;;2.40;56.90;;;;;;4997372;28;19925;-80
2021/12/07 01:31:08;;;;;;;;;;;2.40;57.50;;;;;;5001080;28;19929;-79
2021/12/07 01:45:38;;;;;;;8.48;5.60;;;2.10;59.40;;;;;;4997610;28;20464;-79
2021/12/07 01:53:17;;;;;;;7.07;4.93;;;2.20;60.60;;;;;;4998271;28;20464;-81
2021/12/07 02:01:08;;;;;;;7.05;4.60;;;2.40;59.80;;;;;;4993200;28;20425;-78
2021/12/07 02:03:39;;;;;;;7.80;4.88;;;2.50;59.80;;;;;;4992105;28;20566;-78
2021/12/07 02:06:06;;;;;;;8.25;5.00;;;2.50;59.20;;;;;;4992296;28;20397;-80
2021/12/07 02:08:33;;;;;;;5.93;4.50;;;2.50;58.60;;;;;;4994752;28;20415;-79
2021/12/07 02:11:02;;;;;;;7.23;4.63;;;2.60;58.70;;;;;;4991469;28;20490;-81
2021/12/07 02:15:58;;;;;;;7.07;4.60;;;2.60;58.80;;;;;;4984269;28;20426;-81
2021/12/07 02:18:25;;;;;;;6.43;4.70;;;2.60;58.20;;;;;;4992858;28;20401;-79
2021/12/07 02:20:52;;;;;;;8.03;4.70;;;2.60;57.80;;;;;;4996009;28;20504;-80
2021/12/07 02:23:19;;;;;;;6.50;4.35;;;2.60;57.40;;;;;;4991368;28;20498;-78
2021/12/07 02:25:46;;;;;;;7.40;4.82;;;2.50;57.40;;;;;;4990244;28;20415;-80
2021/12/07 02:28:14;;;;;;;6.72;4.50;;;2.50;57.50;;;;;;4995793;28;20422;-80
2021/12/07 02:30:43;;;;;;;7.07;4.93;;;2.50;57.70;;;;;;4997357;28;20956;-78
2021/12/07 02:33:10;;;;;;;7.82;4.97;;;2.50;56.00;;;;;;4995805;28;20440;-79
2021/12/07 02:35:38;;;;;;;8.30;5.20;;;2.50;56.70;;;;;;4997518;28;20448;-81
2021/12/07 02:38:05;;;;;;;7.72;5.05;;;2.40;57.00;;;;;;5003311;28;20500;-79
2021/12/07 02:40:33;;;;;;;6.78;4.45;;;2.40;56.90;;;;;;4983982;28;20421;-79
2021/12/07 02:43:00;;;;;;;7.63;5.30;;;2.30;57.40;;;;;;4992878;28;20418;-79
2021/12/07 02:45:27;;;;;;;7.97;4.85;;;2.30;57.70;;;;;;4987007;28;20934;-77
2021/12/07 02:47:54;;;;;;;5.70;4.50;;;2.20;57.30;;;;;;5006102;28;20411;-80
2021/12/07 02:50:22;;;;;;;7.07;4.82;;;2.10;57.80;;;;;;4997630;28;20917;-78
2021/12/07 02:52:49;;;;;;;8.03;4.80;;;2.00;58.40;;;;;;4981924;28;20406;-79
2021/12/07 02:55:17;;;;;;;7.32;4.80;;;2.00;58.60;;;;;;5001285;28;20425;-78
2021/12/07 02:57:44;;;;;;;6.70;4.85;;;1.90;58.90;;;;;;4999461;28;20926;-80
2021/12/07 03:00:20;;;;;;;6.90;5.05;;;1.90;59.60;;;;;;4988732;28;20478;-78
2021/12/07 03:02:55;;;;;;;5.82;4.60;;;1.80;59.00;;;;;;4998937;28;20421;-77
2021/12/07 03:27:07;;;;;;;6.25;4.68;;;1.30;61.50;;;;;;4993936;28;20470;-78
2021/12/07 03:29:34;;;;;;;6.28;4.88;;;1.20;61.30;;;;;;4982674;28;20427;-80
2021/12/07 03:32:01;;;;;;;7.05;4.80;;;1.20;61.90;;;;;;4980219;28;20909;-77
2021/12/07 03:34:28;;;;;;;6.82;4.32;;;1.20;62.20;;;;;;4997524;28;20477;-79
2021/12/07 03:36:55;;;;;;;6.27;4.37;;;1.30;61.90;;;;;;5004777;28;20419;-79
2021/12/07 03:39:22;;;;;;;7.50;5.10;;;1.20;61.80;;;;;;4977346;28;20465;-81
2021/12/07 03:41:51;;;;;;;8.15;4.70;;;1.20;61.50;;;;;;4998511;28;20450;-80
2021/12/07 03:44:18;;;;;;;6.43;4.13;;;1.20;61.70;;;;;;4992428;28;20455;-81
2021/12/07 03:46:45;;;;;;;8.15;4.70;;;1.10;62.30;;;;;;4992813;28;20411;-81
2021/12/07 03:49:13;;;;;;;5.78;4.55;;;1.00;62.80;;;;;;4992659;28;20899;-80
2021/12/07 03:51:40;;;;;;;7.18;4.72;;;0.90;63.50;;;;;;4974055;28;20405;-82
2021/12/07 03:54:07;;;;;;;7.83;4.87;;;0.80;64.70;;;;;;4994603;28;20411;-79
2021/12/07 03:56:34;;;;;;;6.78;4.53;;;0.80;65.30;;;;;;4993636;28;20417;-80
2021/12/07 03:59:02;;;;;;;6.18;4.00;;;0.70;65.20;;;;;;4991263;28;20426;-80
2021/12/07 04:01:30;;;;;;;7.80;4.45;;;0.70;65.40;;;;;;4998757;28;20523;-80
2021/12/07 04:04:01;;;;;;;;;;;0.70;66.70;;;;;;5004667;28;20043;-78
2021/12/07 04:06:28;;;;;;;;;;;0.70;66.40;;;;;;4992877;28;19926;-81
2021/12/07 04:08:55;;;;;;;;;;;0.60;66.60;;;;;;4993510;28;19922;-78
2021/12/07 04:11:21;;;;;;;;;;;0.50;67.20;;;;;;4994613;28;19929;-81
2021/12/07 04:13:48;;;;;;;;;;;0.50;67.60;;;;;;4994793;28;19926;-79
2021/12/07 04:16:16;;;;;;;;;;;0.40;67.60;;;;;;4996429;28;19941;-80
2021/12/07 04:18:43;;;;;;;;;;;0.30;67.40;;;;;;4993279;28;19930;-80
2021/12/07 04:21:10;;;;;;;;;;;0.40;67.60;;;;;;5002184;28;19926;-80
2021/12/07 04:23:37;;;;;;;;;;;0.40;67.20;;;;;;4991465;28;19980;-79
2021/12/07 04:26:05;;;;;;;;;;;0.30;67.20;;;;;;4997813;28;19949;-80
2021/12/07 04:28:32;;;;;;;;;;;0.20;67.60;;;;;;4997482;28;19945;-81
2021/12/07 04:30:59;;;;;;;;;;;0.10;67.70;;;;;;4986925;28;19922;-80
2021/12/07 04:33:29;;;;;;;;;;;0.10;66.90;;;;;;4998282;28;19926;-79
2021/12/07 04:35:57;;;;;;;;;;;0.10;66.90;;;;;;4997475;28;19926;-77
2021/12/07 04:38:24;;;;;;;;;;;0.10;66.80;;;;;;4988267;28;19929;-80
2021/12/07 04:40:52;;;;;;;;;;;0.10;67.30;;;;;;4993552;28;19932;-78
2021/12/07 04:43:18;;;;;;;;;;;0.10;67.40;;;;;;4994510;28;19930;-81
2021/12/07 04:59:07;;;;;;;;;;;-0.10;68.50;;;;;;4988153;28;19921;-80
2021/12/07 05:01:34;;;;;;;;;;;-0.10;68.80;;;;;;4988221;28;19925;-79
2021/12/07 05:04:08;;;;;;;;;;;-0.10;68.70;;;;;;4982306;28;19926;-78
2021/12/07 05:06:40;;;;;;;;;;;-0.20;69.30;;;;;;4984435;28;19977;-80
2021/12/07 05:09:29;;;;;;;;;;;-0.30;69.30;;;;;;5000739;28;19925;-79
2021/12/07 05:14:34;;;;;;;;;;;-0.40;69.30;;;;;;4999003;28;19921;-81
2021/12/07 05:38:35;;;;;;;;;;;-0.70;70.10;;;;;;4976210;28;19925;-80
2021/12/07 05:41:02;;;;;;;;;;;-0.80;70.50;;;;;;5008105;28;19921;-80
2021/12/07 05:43:29;;;;;;;;;;;-0.80;70.70;;;;;;4980478;28;19922;-78
2021/12/07 05:45:57;;;;;;;;;;;-0.80;71.00;;;;;;4988227;28;20370;-78
2021/12/07 05:48:24;;;;;;;;;;;-0.80;71.10;;;;;;4998458;28;19922;-79
2021/12/07 05:50:51;;;;;;;;;;;-0.90;71.30;;;;;;4989166;28;19933;-81
2021/12/07 05:53:17;;;;;;;;;;;-1.00;71.20;;;;;;4992965;28;20039;-79
2021/12/07 05:55:44;;;;;;;;;;;-1.10;71.80;;;;;;4992668;28;20374;-80
2021/12/07 05:58:12;;;;;;;;;;;-1.10;71.60;;;;;;4984770;28;20465;-79
2021/12/07 06:00:43;;;;;;;;;;;-1.10;72.20;;;;;;4988104;28;20002;-77
2021/12/07 06:03:11;;;;;;;;;;;-1.20;72.00;;;;;;4998699;28;20409;-78
2021/12/07 06:05:39;;;;;;;;;;;-1.20;72.00;;;;;;4999011;28;19926;-79
2021/12/07 06:08:06;;;;;;;;;;;-1.20;71.90;;;;;;4994064;28;19921;-79
2021/12/07 06:10:33;;;;;;;;;;;-1.20;72.90;;;;;;4985125;28;20371;-78
2021/12/07 06:13:01;;;;;;;;;;;-1.30;72.70;;;;;;4996787;28;20371;-79
2021/12/07 06:15:31;;;;;;;;;;;-1.30;73.20;;;;;;5006300;28;19922;-79
2021/12/07 06:17:58;;;;;;;;;;;-1.40;73.40;;;;;;4993023;28;19921;-79
2021/12/07 06:20:25;;;;;;;;;;;-1.50;73.10;;;;;;4998236;28;19973;-79
2021/12/07 06:23:12;;;;;;;;;;;-1.50;73.90;;;;;;4986620;28;19922;-78
2021/12/07 06:25:39;;;;;;;;;;;-1.40;74.20;;;;;;5002023;28;19922;-79
2021/12/07 06:28:06;;;;;;;;;;;-1.50;73.20;;;;;;4979638;28;20362;-79
2021/12/07 06:30:38;;;;;;;;;;;-1.50;73.20;;;;;;5007653;28;19957;-78
2021/12/07 06:33:05;;;;;;;;;;;-1.50;73.10;;;;;;5014407;28;19929;-78
2021/12/07 06:35:32;;;;;;;;;;;-1.50;73.20;;;;;;5017401;28;20360;-78
2021/12/07 06:37:59;;;;;;;;;;;-1.50;73.40;;;;;;5004509;28;20606;-79
2021/12/07 06:40:26;;;;;;;;;;;-1.50;73.30;;;;;;5000487;28;19925;-78
2021/12/07 06:42:59;;;;;;;;;;;-1.50;73.70;;;;;;4993393;28;19926;-78
2021/12/07 06:45:27;;;;;;;;;;;-1.50;74.30;;;;;;4986941;28;19906;-79
2021/12/07 06:47:55;;;;;;;;;;;-1.50;74.20;;;;;;4988976;28;19922;-78
2021/12/07 06:50:22;;;;;;;;;;;-1.40;73.90;;;;;;4979492;28;19926;-80
2021/12/07 06:52:49;;;;;;;;;;;-1.40;73.60;;;;;;4992357;28;19921;-79
2021/12/07 06:55:16;;;;;;;;;;;-1.40;73.10;;;;;;5006793;28;19926;-79
2021/12/07 06:57:42;;;;;;;;;;;-1.40;72.40;;;;;;4992811;28;20467;-80
2021/12/07 07:00:10;;;;;;;;;;;-1.40;72.50;;;;;;4996573;28;19930;-78
2021/12/07 07:02:37;;;;;;;;;;;-1.50;74.20;;;;;;5006375;28;19933;-78
2021/12/07 07:05:05;;;;;;;;;;;-1.70;74.40;;;;;;4995449;28;19928;-79
2021/12/07 07:07:34;;;;;;;;;;;-1.80;74.90;;;;;;4996534;28;20378;-79
2021/12/07 07:10:01;;;;;;;;;;;-1.80;74.90;;;;;;4984862;28;20424;-80
2021/12/07 07:12:28;;;;;;;;;;;-1.80;75.30;;;;;;4994784;28;20354;-78
2021/12/07 07:14:54;;;;;;;;;;;-1.90;76.20;;;;;;4994624;28;19925;-80
2021/12/07 07:17:21;;;;;;;;;;;-2.10;77.00;;;;;;4987403;28;19926;-78
2021/12/07 07:19:48;;;;;;;;;;;-2.10;76.80;;;;;;5005437;28;19976;-79
2021/12/07 07:22:15;;;;;;;;;;;-2.00;76.40;;;;;;4997987;28;19925;-79
2021/12/07 07:24:43;;;;;;;;;;;-2.00;75.90;;;;;;4996976;28;19926;-80
2021/12/07 07:27:09;;;;;;;;;;;-2.00;76.80;;;;;;4978257;28;20330;-80
2021/12/07 07:29:36;;;;;;;;;;;-2.00;75.90;;;;;;5001638;28;19922;-79
2021/12/07 07:32:03;;;;;;;;;;;-2.00;75.90;;;;;;4979561;28;19926;-78
2021/12/07 07:34:30;;;;;;;;;;;-1.90;75.90;;;;;;5011537;28;20256;-79
2021/12/07 07:36:57;;;;;;;;;;;-1.30;76.30;;;;;;4986037;28;20478;-78
2021/12/07 07:39:24;;;;;;;;;;;-0.40;73.50;;;;;;4980484;28;20370;-79
2021/12/07 07:41:51;;;;;;;;;;;0.40;70.10;;;;;;4992732;28;19926;-79
2021/12/07 07:44:18;;;;;;;;;;;1.10;67.60;;;;;;4998026;28;19925;-78
2021/12/07 07:46:45;;;;;;;;;;;1.60;64.90;;;;;;5002149;28;19921;-80
2021/12/07 07:49:13;;;;;;;;;;;2.10;63.60;;;;;;4986663;28;20294;-79
2021/12/07 07:51:40;;;;;;;;;;;2.40;62.30;;;;;;5010443;28;19922;-78
2021/12/07 07:54:07;;;;;;;;;;;2.60;61.90;;;;;;4984298;28;19925;-79
2021/12/07 07:56:34;;;;;;;;;;;2.60;61.80;;;;;;4994160;28;19922;-80
2021/12/07 07:59:01;;;;;;;;;;;2.50;62.20;;;;;;4997385;28;19968;-80
2021/12/07 08:01:31;;;;;;;;;;;2.40;62.00;;;;;;4989434;28;20359;-78
2021/12/07 08:04:00;;;;;;;;;;;2.40;62.10;;;;;;4994347;28;20335;-78
2021/12/07 08:06:27;;;;;;;;;;;2.40;62.60;;;;;;4998950;28;20295;-79
2021/12/07 08:08:57;;;;;;;;;;;2.40;62.60;;;;;;4990390;28;19928;-80
2021/12/07 08:11:27;;;;;;;;;;;2.40;63.10;;;;;;4999003;28;19906;-80
2021/12/07 08:13:54;;;;;;;;;;;2.40;64.40;;;;;;4996847;28;19913;-79
2021/12/07 08:16:21;;;;;;;;;;;2.50;65.20;;;;;;5001494;28;19921;-80
2021/12/07 08:18:50;;;;;;;;;;;2.30;67.40;;;;;;4980804;28;19926;-80
2021/12/07 08:21:17;;;;;;;;;;;2.30;67.90;;;;;;4997954;28;19972;-80
2021/12/07 08:23:45;;;;;;;;;;;2.40;67.30;;;;;;4988971;28;19988;-79
2021/12/07 08:26:13;;;;;;;;;;;2.60;66.70;;;;;;4980056;28;19926;-77
2021/12/07 08:28:46;;;;;;;;;;;2.80;66.10;;;;;;5015340;28;20382;-80
2021/12/07 08:31:15;;;;;;;;;;;2.90;65.50;;;;;;4971381;28;19926;-80
2021/12/07 08:33:42;;;;;;;;;;;3.00;64.30;;;;;;5010922;28;20008;-78
2021/12/07 08:36:08;;;;;;;;;;;3.10;63.50;;;;;;4990486;28;19922;-79
2021/12/07 08:38:35;;;;;;;;;;;3.20;63.20;;;;;;4983055;28;19926;-80
2021/12/07 08:41:02;;;;;;;;;;;3.40;62.50;;;;;;4992452;28;19926;-78
2021/12/07 08:43:30;;;;;;;;;;;3.50;62.10;;;;;;5006419;28;19926;-78
2021/12/07 08:45:59;;;;;;;;;;;3.60;61.00;;;;;;4977884;28;19926;-79
2021/12/07 08:48:26;;;;;;;;;;;3.50;61.40;;;;;;4986659;28;19925;-79
2021/12/07 08:50:54;;;;;;;;;;;3.60;62.00;;;;;;4993523;28;19964;-78
2021/12/07 08:53:22;;;;;;;;;;;3.70;63.40;;;;;;4997601;28;20377;-78
2021/12/07 09:01:21;;;;;;;;;;;3.80;61.40;;;;;;4995104;28;20392;-80
2021/12/07 09:03:49;;;;;;;;;;;4.00;60.80;;;;;;4992650;28;19988;-79
2021/12/07 09:06:16;;;;;;;;;;;4.10;61.10;;;;;;5006630;28;19926;-77
2021/12/07 09:08:44;;;;;;;;;;;4.20;60.90;;;;;;4982905;28;19926;-79
2021/12/07 09:11:12;;;;;;;;;;;4.30;60.00;;;;;;4993281;28;19922;-79
2021/12/07 09:13:39;;;;;;;;;;;4.50;59.00;;;;;;4999829;28;19926;-77
2021/12/07 09:16:07;;;;;;;;;;;4.60;58.70;;;;;;4984174;28;19929;-78
2021/12/07 09:18:34;;;;;;;;;;;4.70;58.70;;;;;;4987791;28;19922;-79
2021/12/07 09:21:01;;;;;;;;;;;4.80;58.50;;;;;;4994737;28;20366;-79
2021/12/07 09:23:28;;;;;;;;;;;5.00;58.20;;;;;;4988858;28;19926;-78
2021/12/07 09:25:55;;;;;;;;;;;5.10;57.40;;;;;;4985221;28;19957;-78
2021/12/07 09:28:22;;;;;;;;;;;5.20;56.50;;;;;;5010280;28;19926;-78
2021/12/07 09:30:52;;;;;;;;;;;5.30;55.90;;;;;;4980662;28;20429;-78
2021/12/07 09:33:21;;;;;;;;;;;5.50;56.00;;;;;;4983213;28;20431;-79
2021/12/07 09:35:50;;;;;;;;;;;5.60;56.20;;;;;;4998932;28;19922;-80
2021/12/07 09:38:17;;;;;;;;;;;5.70;54.80;;;;;;5000724;28;19961;-80
2021/12/07 09:40:45;;;;;;;;;;;5.80;54.80;;;;;;5000374;28;20366;-79
2021/12/07 09:43:12;;;;;;;;;;;5.70;54.20;;;;;;4994389;28;19928;-78
2021/12/07 09:45:41;;;;;;;;;;;5.80;55.10;;;;;;4996676;28;20450;-79
2021/12/07 09:48:08;;;;;;;;;;;6.00;54.50;;;;;;4997367;28;20361;-80
2021/12/07 09:50:36;;;;;;;;;;;6.10;54.20;;;;;;4991269;28;19933;-77
2021/12/07 09:53:04;;;;;;;;;;;6.20;54.00;;;;;;4994448;28;19926;-78
2021/12/07 09:55:31;;;;;;;;;;;6.40;54.00;;;;;;4990202;28;20326;-79
2021/12/07 09:57:58;;;;;;;;;;;6.50;53.30;;;;;;5005711;28;19929;-80
2021/12/07 10:00:28;;;;;;;;;;;6.60;53.20;;;;;;4986114;28;20390;-80
2021/12/07 10:02:55;;;;;;;;;;;6.60;52.20;;;;;;4995275;28;19926;-78
2021/12/07 10:05:23;;;;;;;;;;;6.70;52.80;;;;;;5007345;28;19922;-78
2021/12/07 10:07:50;;;;;;;;;;;6.90;49.90;;;;;;5000438;28;20354;-78
2021/12/07 10:10:29;;;;;;;;;;;7.00;48.10;;;;;;4986371;28;19969;-80
2021/12/07 10:12:56;;;;;;;;;;;7.10;48.00;;;;;;4991516;28;19930;-80
2021/12/07 10:15:24;;;;;;;;;;;7.30;47.10;;;;;;4979627;28;19922;-80
2021/12/07 10:18:00;;;;;;;;;;;7.30;41.20;;;;;;4992100;28;19922;-80
2021/12/07 10:20:33;;;;;;;;;;;7.30;42.90;;;;;;5012398;28;19921;-81
2021/12/07 10:23:02;;;;;;;;;;;7.50;44.30;;;;;;5000193;28;19952;-76
2021/12/07 10:25:33;;;;;;;;;;;7.70;42.60;;;;;;5003609;28;19925;-78
2021/12/07 10:28:00;;;;;;;;;;;7.80;42.40;;;;;;5005363;28;19922;-79
2021/12/07 10:30:27;;;;;;;;;;;7.90;42.90;;;;;;4993188;28;19969;-77
2021/12/07 10:33:01;;;;;;;;;;;8.00;43.10;;;;;;5009378;28;19906;-77
2021/12/07 10:35:33;;;;;;;;;;;8.20;41.30;;;;;;5003899;28;19926;-80
2021/12/07 10:38:06;;;;;;;;;;;8.40;38.60;;;;;;5001063;28;19922;-78
2021/12/07 10:40:33;;;;;;;;;;;8.40;39.50;;;;;;4997822;28;19948;-78
2021/12/07 10:43:00;;;;;;;;;;;8.50;40.30;;;;;;4994254;28;19922;-78
2021/12/07 10:45:28;;;;;;;;;;;8.70;40.40;;;;;;4990476;28;20377;-79
2021/12/07 10:47:54;;;;;;;;;;;8.80;40.90;;;;;;4992035;28;19925;-79
2021/12/07 10:50:21;;;;;;;;;;;8.80;40.40;;;;;;5006098;28;19910;-79
2021/12/07 11:03:34;;;;;;;;;;;9.20;34.70;;;;;;4995401;28;19922;-77
2021/12/07 11:06:03;;;;;;;;;;;9.20;35.90;;;;;;4987266;28;19912;-78
2021/12/07 11:08:33;;;;;;;;;;;9.30;36.20;;;;;;4979604;28;19968;-77
2021/12/07 11:11:01;;;;;;;;;;;9.50;37.50;;;;;;4964203;28;19929;-79
2021/12/07 11:13:35;;;;;;;;;;;9.60;37.10;;;;;;4976756;28;20342;-77
2021/12/07 11:16:06;;;;;;;;;;;9.70;36.60;;;;;;4976643;28;20013;-79
2021/12/07 11:18:41;;;;;;;;;;;9.80;36.70;;;;;;4994204;28;20379;-79
2021/12/07 11:21:09;;;;;;;;;;;9.80;36.20;;;;;;4993355;28;19933;-79
2021/12/07 11:23:38;;;;;;;;;;;9.80;37.00;;;;;;4973215;28;19921;-78
2021/12/07 11:31:25;;;;;;;;;;;10.00;36.80;;;;;;4969414;28;19925;-79
2021/12/07 11:33:54;;;;;;;;;;;10.00;35.50;;;;;;4977266;28;19922;-78
2021/12/07 11:36:29;;;;;;;;;;;10.10;35.30;;;;;;4983133;28;20384;-79
2021/12/07 11:38:56;;;;;;;;;;;10.10;33.70;;;;;;4990283;28;19921;-79
2021/12/07 11:41:31;;;;;;;;;;;10.20;33.30;;;;;;4975486;28;19930;-78
2021/12/07 11:43:58;;;;;;;;;;;10.30;32.40;;;;;;4965412;28;19921;-80
2021/12/07 11:46:28;;;;;;;;;;;10.50;32.00;;;;;;4988486;28;20004;-80
2021/12/07 11:49:10;;;;;;;;;;;10.60;30.60;;;;;;4973487;28;19922;-80
2021/12/07 11:51:37;;;;;;;;;;;10.70;30.20;;;;;;4977792;28;19922;-78
2021/12/07 11:54:05;;;;;;;;;;;10.70;31.40;;;;;;4972486;28;19929;-78
2021/12/07 11:56:33;;;;;;;4.75;2.20;;;10.80;32.70;;;;;;4979644;28;19922;-79
2021/12/07 11:59:00;;;;;;;3.10;2.10;;;10.80;31.60;;;;;;4955874;28;20051;-80
2021/12/07 12:01:43;;;;;;;4.47;2.80;;;11.00;32.20;;;;;;4967748;28;20066;-78
2021/12/07 12:04:11;;;;;;;4.25;2.90;;;11.00;32.20;;;;;;4958446;28;20425;-78
2021/12/07 12:06:38;;;;;;;3.55;2.40;;;11.00;32.20;;;;;;4960518;28;20914;-79
2021/12/07 12:09:06;;;;;;;2.70;2.03;;;11.00;31.70;;;;;;4992284;28;20461;-78
2021/12/07 12:11:57;;;;;;;3.58;1.90;;;11.10;32.10;;;;;;4969967;28;20439;-79
2021/12/07 12:14:39;;;;;;;2.45;2.05;;;11.20;31.70;;;;;;4978178;28;20429;-79
2021/12/07 12:17:11;;;;;;;1.85;1.60;;;11.40;31.40;;;;;;4985717;28;20806;-79
2021/12/07 12:20:06;;;;;;;3.03;1.60;;;11.40;30.80;;;;;;4966250;28;20422;-80
2021/12/07 12:22:55;;;;;;;2.63;1.50;;;11.50;31.10;;;;;;4985881;28;20413;-80
2021/12/07 12:25:25;;;;;;;3.00;1.73;;;11.60;30.20;;;;;;4991419;28;20417;-80
2021/12/07 12:27:53;;;;;;;;;;;11.60;29.40;;;;;;4976127;28;20066;-79
2021/12/07 12:30:26;;;;;;;;;;;11.50;29.90;;;;;;4973148;28;19926;-81
2021/12/07 12:33:03;;;;;;;2.80;1.73;;;11.50;30.70;;;;;;4979219;28;19941;-79
2021/12/07 12:35:43;;;;;;;2.42;1.80;;;11.40;31.10;;;;;;4962157;28;20519;-79
2021/12/07 12:38:24;;;;;;;3.03;2.08;;;11.40;31.30;;;;;;4979738;28;20058;-80
2021/12/07 12:41:00;;;;;;;7.53;3.60;;;11.40;32.00;;;;;;4975504;28;20491;-80
2021/12/07 12:43:45;;;;;;;3.00;1.45;;;11.60;31.10;;;;;;4978453;28;20511;-79
2021/12/07 12:46:15;;;;;;;2.33;1.60;;;11.70;30.80;;;;;;4968151;28;20042;-78
2021/12/07 12:48:45;;;;;;;1.90;1.33;;;11.80;29.80;;;;;;4977738;28;20042;-80
2021/12/07 12:51:12;;;;;;;1.77;1.23;;;11.80;29.90;;;;;;4975509;28;20093;-78
2021/12/07 12:53:42;;;;;;;2.03;1.83;;;11.80;30.10;;;;;;4977014;28;20419;-78
2021/12/07 12:56:15;;;;;;;3.10;1.58;;;11.90;31.00;;;;;;4977514;28;20039;-78
2021/12/07 12:58:43;;;;;;;;;;;12.00;30.50;;;;;;4983951;28;20051;-78
2021/12/07 13:01:29;;;;;;;2.42;1.60;;;12.10;30.60;;;;;;4958575;28;19922;-81
2021/12/07 13:04:14;;;;;;;2.88;2.00;;;12.00;29.40;;;;;;5013281;28;20098;-80
2021/12/07 13:06:53;;;;;;;;;;;12.00;30.70;;;;;;4977683;28;20480;-79
2021/12/07 13:09:20;;;;;;;;;;;12.00;30.80;;;;;;4982868;28;19929;-81
2021/12/07 13:11:53;;;;;;;;;;;12.00;31.70;;;;;;4991877;28;19929;-78
2021/12/07 13:14:19;;;;;;;;;;;12.00;30.90;;;;;;4987932;28;20283;-80
2021/12/07 13:16:47;;;;;;;;;;;11.90;30.70;;;;;;4968792;28;19922;-80
2021/12/07 13:19:14;;;;;;;;;;;11.80;31.00;;;;;;4961709;28;19922;-79
2021/12/07 13:21:42;;;;;;;;;;;11.80;32.40;;;;;;4979641;28;19926;-78
2021/12/07 13:24:10;;;;;;;;;;;11.90;32.90;;;;;;4990578;28;19930;-78
2021/12/07 13:26:39;;;;;;;;;;;12.00;32.10;;;;;;4986955;28;19973;-78
2021/12/07 13:29:06;;;;;;;;;;;11.90;32.00;;;;;;4972349;28;19928;-78
2021/12/07 13:31:37;;;;;;;;;;;11.90;31.00;;;;;;4973596;28;20346;-78
2021/12/07 13:34:04;;;;;;;;;;;11.80;31.90;;;;;;4978644;28;19929;-79
2021/12/07 13:36:33;;;;;;;;;;;11.80;33.00;;;;;;4982528;28;19953;-78
2021/12/07 13:39:05;;;;;;;;;;;11.70;31.10;;;;;;4973726;28;19933;-80
2021/12/07 13:41:33;;;;;;;;;;;11.60;30.90;;;;;;4974675;28;19930;-80
2021/12/07 13:44:00;;;;;;;;;;;11.50;30.90;;;;;;4977602;28;20283;-78
2021/12/07 13:46:27;;;;;;;;;;;11.40;31.20;;;;;;4980177;28;19922;-81
2021/12/07 13:49:05;;;;;;;;;;;11.40;31.60;;;;;;4978839;28;19922;-79
2021/12/07 13:51:32;;;;;;;;;;;11.30;31.60;;;;;;4977854;28;20375;-79
2021/12/07 13:54:01;;;;;;;;;;;11.20;30.90;;;;;;4968189;28;19972;-80
2021/12/07 13:56:32;;;;;;;;;;;11.20;30.40;;;;;;4983251;28;19922;-80
2021/12/07 13:59:00;;;;;;;;;;;11.10;31.40;;;;;;4977278;28;19974;-78
2021/12/07 14:01:29;;;;;;;;;;;11.00;32.10;;;;;;4980958;28;19926;-80
2021/12/07 14:03:57;;;;;;;;;;;11.00;30.90;;;;;;4984974;28;19986;-78
2021/12/07 14:06:24;;;;;;;;;;;11.00;31.00;;;;;;4981037;28;19930;-80
2021/12/07 14:08:51;;;;;;;;;;;10.90;30.40;;;;;;4983044;28;19922;-78
2021/12/07 14:11:19;;;;;;;;;;;10.90;30.60;;;;;;4980421;28;19938;-78
2021/12/07 14:13:47;;;;;;;;;;;10.90;30.90;;;;;;4977222;28;19970;-78
2021/12/07 14:16:15;;;;;;;;;;;10.80;31.30;;;;;;4964367;28;19923;-79
2021/12/07 14:18:43;;;;;;;;;;;10.80;31.10;;;;;;4977709;28;19972;-79
2021/12/07 14:21:10;;;;;;;;;;;10.70;31.00;;;;;;4969385;28;19933;-79
2021/12/07 14:23:38;;;;;;;;;;;10.70;30.30;;;;;;4981735;28;19929;-79
2021/12/07 14:26:13;;;;;;;;;;;10.60;31.00;;;;;;4976940;28;19922;-80
2021/12/07 14:28:40;;;;;;;;;;;10.50;31.10;;;;;;4982659;28;19922;-78
2021/12/07 14:31:12;;;;;;;;;;;10.40;31.20;;;;;;4979944;28;19922;-79
2021/12/07 14:33:44;;;;;;;;;;;10.40;31.80;;;;;;4990919;28;19977;-80
2021/12/07 14:36:12;;;;;;;;;;;10.40;32.60;;;;;;4983156;28;19906;-80
2021/12/07 14:38:39;;;;;;;;;;;10.30;33.10;;;;;;5006573;28;19928;-79
2021/12/07 14:41:10;;;;;;;;;;;10.30;33.80;;;;;;4982855;28;19923;-81
2021/12/07 14:43:38;;;;;;;;;;;10.30;34.70;;;;;;4987388;28;19922;-81
2021/12/07 14:46:08;;;;;;;;;;;10.30;36.30;;;;;;4982794;28;19922;-81
2021/12/07 14:48:36;;;;;;;;;;;10.30;34.80;;;;;;4970510;28;20016;-81
2021/12/07 14:51:04;;;;;;;;;;;10.20;34.60;;;;;;4982487;28;19933;-81
2021/12/07 14:53:41;;;;;;;;;;;10.20;35.10;;;;;;4976084;28;19922;-78
2021/12/07 14:56:12;;;;;;;;;;;10.10;34.90;;;;;;4967888;28;19906;-79
2021/12/07 14:58:40;;;;;;;;;;;10.00;35.10;;;;;;4992259;28;19925;-79
2021/12/07 15:01:09;;;;;;;;;;;9.90;35.50;;;;;;4987257;28;20290;-78
2021/12/07 15:03:39;;;;;;;;;;;9.80;35.80;;;;;;4992217;28;19922;-79
2021/12/07 15:06:06;;;;;;;;;;;9.70;36.70;;;;;;4987268;28;20359;-79
2021/12/07 15:08:35;;;;;;;;;;;9.60;36.80;;;;;;4978845;28;19968;-79
2021/12/07 15:11:04;;;;;;;;;;;9.50;37.50;;;;;;4975504;28;20267;-80
2021/12/07 15:13:33;;;;;;;;;;;9.40;37.90;;;;;;4985102;28;20370;-78
2021/12/07 15:16:04;;;;;;;;;;;9.30;39.20;;;;;;4983352;28;19926;-80
2021/12/07 15:18:33;;;;;;;;;;;9.20;38.90;;;;;;4985955;28;19929;-80
2021/12/07 15:21:00;;;;;;;;;;;9.00;38.40;;;;;;4984563;28;20012;-78
2021/12/07 15:23:27;;;;;;;;;;;8.90;38.80;;;;;;4986957;28;19906;-80
2021/12/07 15:25:55;;;;;;;;;;;8.80;39.70;;;;;;4982263;28;19933;-80
2021/12/07 15:28:22;;;;;;;;;;;8.60;40.20;;;;;;4981355;28;19930;-79
2021/12/07 15:30:50;;;;;;;;;;;8.50;40.70;;;;;;4980458;28;19906;-80
2021/12/07 15:33:39;;;;;;;;;;;8.30;41.40;;;;;;4969664;28;19926;-80
2021/12/07 15:36:17;;;;;;;;;;;8.20;41.40;;;;;;4957728;28;19930;-80
2021/12/07 15:38:45;;;;;;;;;;;8.00;42.60;;;;;;4986744;28;19922;-78
2021/12/07 15:41:12;;;;;;;;;;;7.90;43.10;;;;;;4976503;28;19921;-79
2021/12/07 15:43:42;;;;;;;;;;;7.70;43.70;;;;;;4986066;28;19949;-79
2021/12/07 15:46:16;;;;;;;;;;;7.60;43.70;;;;;;4973695;28;19929;-78
2021/12/07 15:48:44;;;;;;;;;;;7.50;44.20;;;;;;4979182;28;19978;-78
2021/12/07 15:51:11;;;;;;;;;;;7.30;44.60;;;;;;4992064;28;19932;-80
2021/12/07 15:53:39;;;;;;;;;;;7.20;45.30;;;;;;4995217;28;19926;-79
2021/12/07 15:56:16;;;;;;;;;;;7.00;45.00;;;;;;4985570;28;19922;-79
2021/12/07 15:58:44;;;;;;;;;;;6.90;44.80;;;;;;4994151;28;19914;-79
2021/12/07 16:01:11;;;;;;;;;;;6.80;45.10;;;;;;4973702;28;19922;-78
2021/12/07 16:03:43;;;;;;;;;;;6.60;46.10;;;;;;4975530;28;19929;-79
2021/12/07 16:06:18;;;;;;;;;;;6.40;46.60;;;;;;4984647;28;19926;-79
2021/12/07 16:08:45;;;;;;;;;;;6.30;47.10;;;;;;4971920;28;20370;-80
2021/12/07 16:11:20;;;;;;;;;;;6.10;47.60;;;;;;5025965;28;19968;-78
2021/12/07 16:13:51;;;;;;;;;;;6.00;48.30;;;;;;4985290;28;20337;-78
2021/12/07 16:16:20;;;;;;;;;;;5.80;48.10;;;;;;4985376;28;19985;-78
2021/12/07 16:18:47;;;;;;;;;;;5.70;49.40;;;;;;4984328;28;20370;-80
2021/12/07 16:21:14;;;;;;;;;;;5.60;49.10;;;;;;4972065;28;20021;-79
2021/12/07 16:23:43;;;;;;;;;;;5.50;49.50;;;;;;4973131;28;19922;-78
2021/12/07 16:26:10;;;;;;;;;;;5.40;49.90;;;;;;4985591;28;19926;-80